createdAt,value
2018-11-05T00:01:03.248Z,35.63
2018-11-05T00:03:32.978Z,36.00
2018-11-05T00:06:02.965Z,36.00
2018-11-05T00:08:32.739Z,35.26
2018-11-05T00:11:17.318Z,35.90
2018-11-05T00:13:47.062Z,35.47
2018-11-05T00:16:16.942Z,36.02
2018-11-05T00:18:46.694Z,35.94
2018-11-05T00:21:16.827Z,36.43
2018-11-05T00:23:46.517Z,35.54
2018-11-05T00:26:16.282Z,35.84
2018-11-05T00:28:46.035Z,35.92
2018-11-05T00:31:15.643Z,36.35
2018-11-05T00:33:45.316Z,35.21
2018-11-05T00:36:15.164Z,35.47
2018-11-05T00:38:44.936Z,35.17
2018-11-05T00:41:14.714Z,36.57
2018-11-05T00:43:44.234Z,36.15
2018-11-05T00:46:14.559Z,35.76
2018-11-05T00:48:44.286Z,36.72
2018-11-05T00:51:14.014Z,36.09
2018-11-05T00:53:43.687Z,36.27
2018-11-05T00:56:13.519Z,36.59
2018-11-05T00:58:43.251Z,36.34
2018-11-05T01:01:13.283Z,35.82
2018-11-05T01:03:42.959Z,36.37
2018-11-05T01:06:12.716Z,35.99
2018-11-05T01:08:42.874Z,36.09
2018-11-05T01:11:12.638Z,36.79
2018-11-05T01:13:42.419Z,36.85
2018-11-05T01:16:12.226Z,36.83
2018-11-05T01:18:42.661Z,35.89
2018-11-05T01:21:12.427Z,36.35
2018-11-05T01:23:42.199Z,37.01
2018-11-05T01:26:11.906Z,37.45
2018-11-05T01:28:41.614Z,36.21
2018-11-05T01:31:11.684Z,36.35
2018-11-05T01:33:41.388Z,37.53
2018-11-05T01:36:11.196Z,37.92
2018-11-05T01:38:41.626Z,36.91
2018-11-05T01:41:11.251Z,37.71
2018-11-05T01:43:41.037Z,37.56
2018-11-05T01:46:10.811Z,37.16
2018-11-05T01:48:40.451Z,38.04
2018-11-05T01:51:10.558Z,37.79
2018-11-05T01:53:40.202Z,37.71
2018-11-05T01:56:10.011Z,37.34
2018-11-05T01:58:39.599Z,37.98
2018-11-05T02:01:09.246Z,37.76
2018-11-05T02:03:39.516Z,38.70
2018-11-05T02:06:09.327Z,38.71
2018-11-05T02:08:39.049Z,38.55
2018-11-05T02:11:08.781Z,38.09
2018-11-05T02:13:38.512Z,38.69
2018-11-05T02:16:08.565Z,37.85
2018-11-05T02:18:38.330Z,38.78
2018-11-05T02:21:08.225Z,38.95
2018-11-05T02:23:37.966Z,38.19
2018-11-05T02:26:07.783Z,38.70
2018-11-05T02:28:37.569Z,38.69
2018-11-05T02:31:07.327Z,38.83
2018-11-05T02:33:37.103Z,39.20
2018-11-05T02:36:06.779Z,38.52
2018-11-05T02:38:36.518Z,38.69
2018-11-05T02:41:06.770Z,39.25
2018-11-05T02:43:36.815Z,39.24
2018-11-05T02:46:06.534Z,38.42
2018-11-05T02:48:36.237Z,38.74
2018-11-05T02:51:06.152Z,39.74
2018-11-05T02:53:35.918Z,39.28
2018-11-05T02:56:06.083Z,39.23
2018-11-05T02:58:35.896Z,39.43
2018-11-05T03:01:05.698Z,39.97
2018-11-05T03:03:35.588Z,40.40
2018-11-05T03:06:05.428Z,40.36
2018-11-05T03:08:35.207Z,39.60
2018-11-05T03:11:04.877Z,40.05
2018-11-05T03:13:34.624Z,39.63
2018-11-05T03:16:04.665Z,40.37
2018-11-05T03:18:34.344Z,40.33
2018-11-05T03:21:04.151Z,40.82
2018-11-05T03:23:33.885Z,40.71
2018-11-05T03:26:03.891Z,40.80
2018-11-05T03:28:33.930Z,41.09
2018-11-05T03:31:03.683Z,40.73
2018-11-05T03:33:33.371Z,40.05
2018-11-05T03:36:03.294Z,41.15
2018-11-05T03:38:33.100Z,40.48
2018-11-05T03:41:02.848Z,40.12
2018-11-05T03:43:32.927Z,40.87
2018-11-05T03:46:02.706Z,40.79
2018-11-05T03:48:32.506Z,41.54
2018-11-05T03:51:02.324Z,40.76
2018-11-05T03:53:32.192Z,40.70
2018-11-05T03:56:01.979Z,41.24
2018-11-05T03:58:31.787Z,40.47
2018-11-05T04:01:01.354Z,41.78
2018-11-05T04:03:31.249Z,41.50
2018-11-05T04:06:00.907Z,41.45
2018-11-05T04:08:30.864Z,41.56
2018-11-05T04:11:00.534Z,41.69
2018-11-05T04:13:30.266Z,41.98
2018-11-05T04:16:00.040Z,40.89
2018-11-05T04:18:29.764Z,41.54
2018-11-05T04:20:59.878Z,41.49
2018-11-05T04:23:29.685Z,41.98
2018-11-05T04:25:59.359Z,41.60
2018-11-05T04:28:29.039Z,41.45
2018-11-05T04:30:58.777Z,42.27
2018-11-05T04:33:28.489Z,42.46
2018-11-05T04:35:58.703Z,41.30
2018-11-05T04:38:28.417Z,41.43
2018-11-05T04:40:58.151Z,42.31
2018-11-05T04:43:27.823Z,41.84
2018-11-05T04:45:57.822Z,42.54
2018-11-05T04:48:27.587Z,42.25
2018-11-05T04:50:57.677Z,42.25
2018-11-05T04:53:27.987Z,42.00
2018-11-05T04:55:57.775Z,42.90
2018-11-05T04:58:27.638Z,42.12
2018-11-05T05:00:57.396Z,43.22
2018-11-05T05:03:27.373Z,43.29
2018-11-05T05:05:57.039Z,42.91
2018-11-05T05:08:27.466Z,42.37
2018-11-05T05:10:57.174Z,42.62
2018-11-05T05:13:27.020Z,43.23
2018-11-05T05:15:56.831Z,42.62
2018-11-05T05:18:26.389Z,43.41
2018-11-05T05:20:56.456Z,42.68
2018-11-05T05:23:26.254Z,42.80
2018-11-05T05:25:55.972Z,42.37
2018-11-05T05:28:25.828Z,43.54
2018-11-05T05:30:55.648Z,42.55
2018-11-05T05:33:25.434Z,42.44
2018-11-05T05:35:55.166Z,43.72
2018-11-05T05:38:24.951Z,43.71
2018-11-05T05:40:55.082Z,42.97
2018-11-05T05:43:24.666Z,43.47
2018-11-05T05:45:54.426Z,42.55
2018-11-05T05:48:24.222Z,43.00
2018-11-05T05:50:57.005Z,43.15
2018-11-05T05:53:26.817Z,44.19
2018-11-05T05:55:56.949Z,43.48
2018-11-05T05:58:27.219Z,43.32
2018-11-05T06:00:57.090Z,43.04
2018-11-05T06:03:26.973Z,43.51
2018-11-05T06:05:56.846Z,43.95
2018-11-05T06:08:27.208Z,43.98
2018-11-05T06:10:56.951Z,43.16
2018-11-05T06:13:27.122Z,43.35
2018-11-05T06:15:56.904Z,44.03
2018-11-05T06:18:26.660Z,44.43
2018-11-05T06:20:56.403Z,43.53
2018-11-05T06:23:26.173Z,44.04
2018-11-05T06:25:56.255Z,44.11
2018-11-05T06:28:26.022Z,44.34
2018-11-05T06:30:55.911Z,44.18
2018-11-05T06:33:25.656Z,45.15
2018-11-05T06:35:55.432Z,44.91
2018-11-05T06:38:25.314Z,43.86
2018-11-05T06:40:55.058Z,45.37
2018-11-05T06:43:25.107Z,45.20
2018-11-05T06:45:54.819Z,44.22
2018-11-05T06:48:25.132Z,44.75
2018-11-05T06:50:54.798Z,45.10
2018-11-05T06:53:24.590Z,44.32
2018-11-05T06:55:54.363Z,44.75
2018-11-05T06:58:24.734Z,44.38
2018-11-05T07:00:54.501Z,45.76
2018-11-05T07:03:24.254Z,44.79
2018-11-05T07:05:54.047Z,45.88
2018-11-05T07:08:24.207Z,44.69
2018-11-05T07:10:53.943Z,45.90
2018-11-05T07:13:23.721Z,45.21
2018-11-05T07:15:53.663Z,44.94
2018-11-05T07:18:23.789Z,45.36
2018-11-05T07:20:53.386Z,45.16
2018-11-05T07:23:23.295Z,45.43
2018-11-05T07:25:53.424Z,46.33
2018-11-05T07:28:23.376Z,45.68
2018-11-05T07:30:53.162Z,46.53
2018-11-05T07:33:23.272Z,46.21
2018-11-05T07:35:53.051Z,45.85
2018-11-05T07:38:23.014Z,45.31
2018-11-05T07:40:53.173Z,46.16
2018-11-05T07:43:22.918Z,45.61
2018-11-05T07:45:52.691Z,45.92
2018-11-05T07:48:22.291Z,46.45
2018-11-05T07:50:52.091Z,45.74
2018-11-05T07:53:22.275Z,45.33
2018-11-05T07:55:52.854Z,45.43
2018-11-05T07:58:22.930Z,45.41
2018-11-05T08:00:58.719Z,46.48
2018-11-05T08:03:28.718Z,45.41
2018-11-05T08:05:59.171Z,46.37
2018-11-05T08:08:28.987Z,46.15
2018-11-05T08:10:58.989Z,46.45
2018-11-05T08:13:28.804Z,45.93
2018-11-05T08:15:58.571Z,47.16
2018-11-05T08:18:28.616Z,46.47
2018-11-05T08:20:58.364Z,45.99
2018-11-05T08:23:28.072Z,46.86
2018-11-05T08:25:57.904Z,47.01
2018-11-05T08:28:28.023Z,47.07
2018-11-05T08:30:57.877Z,46.28
2018-11-05T08:33:27.723Z,47.28
2018-11-05T08:35:57.420Z,47.12
2018-11-05T08:38:27.882Z,46.25
2018-11-05T08:40:57.451Z,46.85
2018-11-05T08:43:27.203Z,47.91
2018-11-05T08:45:56.974Z,47.38
2018-11-05T08:48:26.759Z,47.05
2018-11-05T08:50:56.423Z,48.25
2018-11-05T08:53:26.122Z,47.30
2018-11-05T08:55:55.943Z,47.11
2018-11-05T08:58:25.492Z,47.97
2018-11-05T09:00:55.305Z,47.53
2018-11-05T09:03:25.066Z,47.47
2018-11-05T09:05:54.879Z,47.63
2018-11-05T09:08:24.962Z,48.18
2018-11-05T09:10:54.997Z,47.63
2018-11-05T09:13:24.511Z,47.03
2018-11-05T09:15:54.432Z,48.05
2018-11-05T09:18:24.611Z,47.06
2018-11-05T09:20:54.854Z,47.45
2018-11-05T09:23:24.548Z,47.60
2018-11-05T09:25:54.322Z,48.41
2018-11-05T09:28:24.203Z,48.07
2018-11-05T09:30:53.988Z,47.16
2018-11-05T09:33:23.738Z,48.32
2018-11-05T09:35:53.486Z,47.84
2018-11-05T09:38:23.359Z,48.48
2018-11-05T09:40:53.106Z,47.42
2018-11-05T09:43:23.103Z,47.33
2018-11-05T09:45:52.787Z,47.75
2018-11-05T09:48:22.439Z,48.42
2018-11-05T09:50:52.222Z,48.19
2018-11-05T09:53:21.899Z,47.17
2018-11-05T09:55:51.682Z,48.17
2018-11-05T09:58:21.422Z,48.45
2018-11-05T10:00:51.054Z,48.61
2018-11-05T10:03:20.949Z,47.81
2018-11-05T10:05:50.847Z,49.11
2018-11-05T10:08:20.520Z,48.80
2018-11-05T10:10:50.640Z,48.07
2018-11-05T10:13:20.443Z,47.42
2018-11-05T10:15:50.183Z,47.47
2018-11-05T10:18:19.867Z,48.62
2018-11-05T10:20:49.538Z,48.67
2018-11-05T10:23:19.278Z,47.61
2018-11-05T10:25:49.262Z,47.73
2018-11-05T10:28:19.039Z,47.98
2018-11-05T10:30:48.719Z,47.41
2018-11-05T10:33:18.482Z,48.10
2018-11-05T10:35:53.259Z,48.91
2018-11-05T10:38:23.241Z,47.99
2018-11-05T10:40:53.188Z,47.82
2018-11-05T10:43:22.978Z,48.31
2018-11-05T10:45:52.855Z,48.59
2018-11-05T10:48:22.991Z,49.33
2018-11-05T10:50:52.773Z,48.28
2018-11-05T10:53:22.998Z,49.36
2018-11-05T10:55:52.719Z,48.22
2018-11-05T10:58:22.406Z,48.19
2018-11-05T11:00:57.070Z,48.90
2018-11-05T11:03:30.848Z,49.35
2018-11-05T11:06:00.613Z,49.58
2018-11-05T11:08:30.461Z,49.40
2018-11-05T11:11:00.167Z,49.97
2018-11-05T11:13:30.910Z,49.09
2018-11-05T11:16:00.766Z,50.46
2018-11-05T11:18:30.917Z,49.62
2018-11-05T11:21:00.676Z,49.31
2018-11-05T11:23:30.604Z,49.58
2018-11-05T11:26:00.963Z,49.22
2018-11-05T11:28:30.821Z,49.70
2018-11-05T11:31:01.019Z,49.79
2018-11-05T11:33:30.912Z,49.24
2018-11-05T11:36:00.654Z,50.44
2018-11-05T11:38:30.739Z,49.53
2018-11-05T11:41:00.562Z,49.62
2018-11-05T11:43:30.806Z,49.56
2018-11-05T11:46:00.623Z,50.25
2018-11-05T11:48:30.727Z,50.74
2018-11-05T11:51:00.946Z,50.48
2018-11-05T11:53:31.057Z,51.48
2018-11-05T11:56:00.650Z,51.33
2018-11-05T11:58:30.391Z,51.62
2018-11-05T12:01:00.318Z,50.79
2018-11-05T12:03:30.146Z,50.97
2018-11-05T12:05:59.907Z,51.07
2018-11-05T12:08:29.755Z,52.05
2018-11-05T12:10:59.703Z,52.34
2018-11-05T12:13:29.519Z,51.58
2018-11-05T12:15:59.301Z,49.93
2018-11-05T12:18:29.169Z,50.32
2018-11-05T12:20:58.936Z,50.95
2018-11-05T12:23:28.808Z,50.84
2018-11-05T12:25:58.563Z,51.45
2018-11-05T12:28:28.500Z,51.07
2018-11-05T12:30:58.338Z,50.84
2018-11-05T12:33:28.083Z,51.14
2018-11-05T12:35:57.859Z,51.74
2018-11-05T12:38:27.691Z,51.00
2018-11-05T12:40:57.431Z,51.80
2018-11-05T12:43:27.325Z,50.98
2018-11-05T12:45:57.191Z,50.76
2018-11-05T12:48:27.000Z,51.03
2018-11-05T12:50:56.825Z,51.65
2018-11-05T12:53:26.707Z,51.77
2018-11-05T12:55:56.527Z,50.94
2018-11-05T12:58:26.683Z,51.16
2018-11-05T13:00:56.576Z,51.66
2018-11-05T13:03:26.471Z,50.56
2018-11-05T13:05:56.504Z,49.41
2018-11-05T13:08:26.615Z,50.46
2018-11-05T13:10:56.447Z,49.91
2018-11-05T13:13:26.328Z,51.23
2018-11-05T13:15:56.495Z,50.12
2018-11-05T13:18:26.334Z,51.25
2018-11-05T13:20:56.380Z,50.56
2018-11-05T13:23:31.488Z,50.66
2018-11-05T13:26:01.411Z,51.40
2018-11-05T13:28:31.356Z,50.62
2018-11-05T13:31:01.020Z,51.60
2018-11-05T13:33:31.071Z,53.46
2018-11-05T13:36:01.623Z,55.24
2018-11-05T13:38:31.361Z,54.98
2018-11-05T13:41:02.063Z,54.68
2018-11-05T13:43:32.286Z,55.48
2018-11-05T13:46:02.400Z,54.52
2018-11-05T13:48:32.523Z,54.67
2018-11-05T13:51:01.807Z,55.29
2018-11-05T13:53:31.610Z,54.69
2018-11-05T13:56:01.687Z,55.42
2018-11-05T13:58:31.547Z,55.77
2018-11-05T14:01:01.483Z,54.41
2018-11-05T14:03:31.366Z,54.70
2018-11-05T14:06:01.153Z,55.83
2018-11-05T14:08:30.861Z,55.56
2018-11-05T14:11:00.647Z,55.35
2018-11-05T14:13:30.784Z,54.72
2018-11-05T14:16:00.606Z,55.89
2018-11-05T14:18:31.476Z,54.56
2018-11-05T14:21:01.295Z,55.29
2018-11-05T14:23:31.487Z,55.77
2018-11-05T14:26:01.514Z,56.48
2018-11-05T14:28:32.868Z,55.42
2018-11-05T14:31:03.052Z,56.31
2018-11-05T14:33:33.485Z,56.01
2018-11-05T14:36:03.447Z,57.26
2018-11-05T14:38:33.622Z,57.22
2018-11-05T14:41:03.463Z,56.25
2018-11-05T14:43:33.471Z,56.75
2018-11-05T14:46:03.328Z,56.84
2018-11-05T14:48:33.528Z,55.99
2018-11-05T14:51:03.676Z,56.68
2018-11-05T14:53:33.390Z,55.94
2018-11-05T14:56:03.159Z,55.67
2018-11-05T14:58:33.338Z,56.66
2018-11-05T15:01:03.452Z,56.08
2018-11-05T15:03:33.471Z,54.64
2018-11-05T15:06:03.391Z,56.95
2018-11-05T15:08:33.203Z,56.80
2018-11-05T15:11:03.741Z,56.61
2018-11-05T15:13:33.585Z,54.25
2018-11-05T15:16:03.378Z,56.44
2018-11-05T15:18:33.292Z,56.88
2018-11-05T15:21:03.160Z,57.28
2018-11-05T15:23:33.399Z,56.40
2018-11-05T15:26:03.490Z,56.37
2018-11-05T15:28:33.310Z,55.99
2018-11-05T15:31:03.091Z,57.36
2018-11-05T15:33:32.784Z,56.52
2018-11-05T15:36:02.851Z,57.51
2018-11-05T15:38:32.911Z,57.57
2018-11-05T15:41:02.964Z,57.54
2018-11-05T15:43:33.230Z,56.66
2018-11-05T15:46:03.275Z,56.97
2018-11-05T15:48:32.970Z,57.46
2018-11-05T15:51:02.678Z,57.60
2018-11-05T15:53:33.565Z,57.39
2018-11-05T15:56:03.341Z,56.81
2018-11-05T15:58:33.935Z,58.08
2018-11-05T16:01:04.253Z,57.27
2018-11-05T16:03:34.455Z,57.18
2018-11-05T16:06:04.274Z,56.91
2018-11-05T16:08:34.070Z,56.82
2018-11-05T16:11:03.738Z,56.98
2018-11-05T16:13:33.841Z,56.76
2018-11-05T16:16:03.589Z,57.43
2018-11-05T16:18:35.457Z,58.00
2018-11-05T16:21:05.631Z,56.96
2018-11-05T16:23:35.734Z,57.91
2018-11-05T16:26:06.218Z,57.84
2018-11-05T16:28:35.984Z,56.98
2018-11-05T16:31:05.999Z,57.45
2018-11-05T16:33:36.663Z,58.47
2018-11-05T16:36:07.175Z,57.74
2018-11-05T16:38:37.208Z,57.26
2018-11-05T16:41:07.458Z,56.99
2018-11-05T16:43:37.531Z,57.64
2018-11-05T16:46:08.039Z,57.12
2018-11-05T16:48:38.366Z,56.61
2018-11-05T16:51:08.057Z,57.60
2018-11-05T16:53:37.902Z,55.81
2018-11-05T16:56:07.647Z,56.45
2018-11-05T16:58:37.400Z,55.95
2018-11-05T17:01:07.362Z,57.12
2018-11-05T17:03:36.887Z,55.90
2018-11-05T17:06:06.846Z,56.30
2018-11-05T17:08:36.615Z,56.33
2018-11-05T17:11:06.798Z,57.23
2018-11-05T17:13:36.809Z,55.65
2018-11-05T17:16:06.903Z,56.26
2018-11-05T17:18:36.962Z,55.78
2018-11-05T17:21:07.059Z,55.72
2018-11-05T17:23:36.864Z,54.68
2018-11-05T17:26:06.747Z,55.45
2018-11-05T17:28:36.466Z,56.60
2018-11-05T17:31:07.202Z,55.30
2018-11-05T17:33:37.028Z,55.74
2018-11-05T17:36:06.601Z,55.61
2018-11-05T17:38:36.941Z,55.92
2018-11-05T17:41:07.312Z,55.67
2018-11-05T17:43:37.216Z,55.92
2018-11-05T17:46:07.084Z,56.17
2018-11-05T17:48:37.630Z,56.06
2018-11-05T17:51:08.418Z,55.74
2018-11-05T17:53:38.214Z,55.82
2018-11-05T17:56:08.007Z,55.55
2018-11-05T17:58:37.689Z,56.27
2018-11-05T18:01:07.472Z,56.14
2018-11-05T18:03:37.187Z,56.30
2018-11-05T18:06:10.482Z,55.57
2018-11-05T18:08:40.375Z,56.38
2018-11-05T18:11:10.495Z,56.00
2018-11-05T18:13:40.271Z,55.83
2018-11-05T18:16:10.155Z,55.18
2018-11-05T18:18:40.091Z,55.76
2018-11-05T18:21:10.157Z,55.43
2018-11-05T18:23:40.096Z,55.09
2018-11-05T18:26:09.913Z,56.39
2018-11-05T18:28:39.695Z,54.95
2018-11-05T18:31:09.928Z,55.72
2018-11-05T18:33:39.670Z,56.80
2018-11-05T18:36:09.325Z,55.41
2018-11-05T18:38:39.100Z,55.74
2018-11-05T18:41:08.989Z,56.87
2018-11-05T18:43:38.960Z,56.19
2018-11-05T18:46:09.020Z,56.19
2018-11-05T18:48:38.723Z,57.04
2018-11-05T18:51:08.471Z,57.09
2018-11-05T18:53:38.251Z,57.17
2018-11-05T18:56:08.007Z,55.53
2018-11-05T18:58:37.769Z,57.31
2018-11-05T19:01:07.477Z,56.88
2018-11-05T19:03:37.339Z,56.68
2018-11-05T19:06:07.134Z,56.10
2018-11-05T19:08:36.925Z,55.95
2018-11-05T19:11:06.805Z,57.34
2018-11-05T19:13:36.485Z,57.21
2018-11-05T19:16:06.239Z,56.67
2018-11-05T19:18:36.110Z,56.25
2018-11-05T19:21:06.127Z,56.24
2018-11-05T19:23:35.891Z,57.26
2018-11-05T19:26:05.943Z,56.84
2018-11-05T19:28:35.780Z,57.44
2018-11-05T19:31:05.856Z,56.40
2018-11-05T19:33:35.775Z,57.02
2018-11-05T19:36:06.919Z,57.03
2018-11-05T19:38:37.074Z,56.57
2018-11-05T19:41:06.938Z,56.79
2018-11-05T19:43:36.690Z,57.34
2018-11-05T19:46:06.813Z,57.09
2018-11-05T19:48:36.607Z,57.47
2018-11-05T19:51:06.715Z,58.04
2018-11-05T19:53:36.623Z,57.64
2018-11-05T19:56:07.552Z,57.76
2018-11-05T19:58:37.397Z,57.65
2018-11-05T20:01:07.254Z,58.14
2018-11-05T20:03:37.087Z,57.58
2018-11-05T20:06:06.895Z,58.36
2018-11-05T20:08:36.668Z,57.39
2018-11-05T20:11:06.667Z,58.24
2018-11-05T20:13:36.683Z,57.73
2018-11-05T20:16:06.384Z,57.80
2018-11-05T20:18:36.174Z,57.62
2018-11-05T20:21:06.139Z,56.92
2018-11-05T20:23:36.001Z,57.39
2018-11-05T20:26:05.779Z,57.07
2018-11-05T20:28:36.480Z,56.91
2018-11-05T20:31:06.922Z,56.10
2018-11-05T20:33:36.659Z,56.76
2018-11-05T20:36:06.655Z,57.25
2018-11-05T20:38:36.494Z,56.90
2018-11-05T20:41:06.292Z,57.00
2018-11-05T20:43:36.928Z,57.29
2018-11-05T20:46:06.711Z,56.29
2018-11-05T20:48:36.649Z,57.44
2018-11-05T20:51:06.519Z,57.61
2018-11-05T20:53:36.142Z,57.88
2018-11-05T20:56:05.535Z,56.75
2018-11-05T20:58:35.067Z,56.51
2018-11-05T21:01:04.837Z,57.73
2018-11-05T21:03:34.554Z,56.47
2018-11-05T21:06:04.399Z,57.20
2018-11-05T21:08:34.185Z,57.79
2018-11-05T21:11:03.883Z,56.46
2018-11-05T21:13:33.591Z,56.75
2018-11-05T21:16:03.379Z,57.13
2018-11-05T21:18:33.146Z,57.20
2018-11-05T21:21:03.571Z,57.16
2018-11-05T21:23:33.311Z,57.01
2018-11-05T21:26:03.099Z,57.74
2018-11-05T21:28:32.972Z,57.64
2018-11-05T21:31:02.654Z,58.16
2018-11-05T21:33:32.449Z,56.69
2018-11-05T21:36:02.197Z,57.47
2018-11-05T21:38:31.974Z,58.60
2018-11-05T21:41:01.747Z,58.33
2018-11-05T21:43:31.553Z,58.28
2018-11-05T21:46:01.413Z,58.00
2018-11-05T21:48:31.181Z,57.38
2018-11-05T21:51:00.922Z,58.09
2018-11-05T21:53:30.694Z,58.58
2018-11-05T21:56:00.874Z,58.57
2018-11-05T21:58:31.579Z,57.89
2018-11-05T22:01:01.353Z,58.70
2018-11-05T22:03:31.145Z,58.76
2018-11-05T22:06:00.878Z,58.70
2018-11-05T22:08:30.646Z,59.17
2018-11-05T22:11:00.390Z,58.86
2018-11-05T22:13:30.277Z,59.17
2018-11-05T22:16:00.048Z,58.30
2018-11-05T22:18:29.791Z,58.96
2018-11-05T22:20:59.463Z,58.55
2018-11-05T22:23:29.267Z,59.22
2018-11-05T22:25:59.023Z,58.05
2018-11-05T22:28:28.796Z,58.93
2018-11-05T22:30:58.572Z,58.38
2018-11-05T22:33:28.417Z,59.47
2018-11-05T22:35:58.196Z,59.80
2018-11-05T22:38:28.051Z,58.47
2018-11-05T22:40:57.807Z,59.73
2018-11-05T22:43:27.585Z,59.37
2018-11-05T22:45:57.302Z,59.01
2018-11-05T22:48:27.038Z,59.32
2018-11-05T22:50:56.834Z,59.31
2018-11-05T22:53:26.659Z,59.21
2018-11-05T22:55:56.458Z,58.51
2018-11-05T22:58:26.220Z,58.86
2018-11-05T23:01:00.887Z,58.46
2018-11-05T23:03:31.968Z,58.78
2018-11-05T23:06:01.724Z,59.06
2018-11-05T23:08:31.497Z,59.11
2018-11-05T23:11:01.299Z,58.61
2018-11-05T23:13:31.055Z,58.88
2018-11-05T23:16:00.763Z,58.35
2018-11-05T23:18:30.526Z,58.23
2018-11-05T23:21:00.243Z,59.14
2018-11-05T23:23:30.018Z,59.18
2018-11-05T23:25:59.867Z,59.43
2018-11-05T23:28:29.639Z,58.18
2018-11-05T23:30:59.487Z,57.77
2018-11-05T23:33:29.330Z,59.17
2018-11-05T23:35:59.074Z,57.91
2018-11-05T23:38:28.878Z,58.57
2018-11-05T23:40:58.768Z,58.74
2018-11-05T23:43:28.536Z,58.77
2018-11-05T23:45:58.203Z,58.71
2018-11-05T23:48:28.057Z,59.22
2018-11-05T23:50:57.890Z,58.71
2018-11-05T23:53:27.606Z,57.48
2018-11-05T23:55:57.470Z,58.00
2018-11-05T23:58:27.226Z,58.08
